sensor_id;sensor_type;location;lat;lon;timestamp;P1;durP1;ratioP1;P2;durP2;ratioP2
5876;SDS011;2964;42.144;24.730;2023-04-15T00:00:05;7.20;;;6.63;;
5876;SDS011;2964;42.144;24.730;2023-04-15T00:02:32;9.93;;;6.77;;
5876;SDS011;2964;42.144;24.730;2023-04-15T00:04:59;7.40;;;6.70;;
5876;SDS011;2964;42.144;24.730;2023-04-15T00:07:27;6.73;;;6.17;;
5876;SDS011;2964;42.144;24.730;2023-04-15T00:09:54;10.00;;;7.10;;
5876;SDS011;2964;42.144;24.730;2023-04-15T00:12:21;6.70;;;6.20;;
5876;SDS011;2964;42.144;24.730;2023-04-15T00:14:48;7.93;;;7.23;;
5876;SDS011;2964;42.144;24.730;2023-04-15T00:17:15;7.63;;;6.97;;
5876;SDS011;2964;42.144;24.730;2023-04-15T00:19:42;7.87;;;7.33;;
5876;SDS011;2964;42.144;24.730;2023-04-15T00:22:08;8.37;;;6.80;;
5876;SDS011;2964;42.144;24.730;2023-04-15T00:24:37;7.90;;;7.30;;
5876;SDS011;2964;42.144;24.730;2023-04-15T00:27:03;7.97;;;7.13;;
5876;SDS011;2964;42.144;24.730;2023-04-15T00:29:30;7.93;;;7.30;;
5876;SDS011;2964;42.144;24.730;2023-04-15T00:31:57;10.27;;;8.93;;
5876;SDS011;2964;42.144;24.730;2023-04-15T00:34:25;8.63;;;7.67;;
5876;SDS011;2964;42.144;24.730;2023-04-15T00:36:53;8.07;;;7.43;;
5876;SDS011;2964;42.144;24.730;2023-04-15T00:39:21;8.10;;;7.47;;
5876;SDS011;2964;42.144;24.730;2023-04-15T00:41:49;8.13;;;7.50;;
5876;SDS011;2964;42.144;24.730;2023-04-15T00:44:16;8.87;;;8.17;;
5876;SDS011;2964;42.144;24.730;2023-04-15T00:46:43;9.20;;;8.37;;
5876;SDS011;2964;42.144;24.730;2023-04-15T00:49:11;9.13;;;7.57;;
5876;SDS011;2964;42.144;24.730;2023-04-15T00:51:38;8.67;;;7.97;;
5876;SDS011;2964;42.144;24.730;2023-04-15T00:54:05;8.53;;;7.87;;
5876;SDS011;2964;42.144;24.730;2023-04-15T00:56:33;8.40;;;7.70;;
5876;SDS011;2964;42.144;24.730;2023-04-15T00:59:03;8.03;;;7.33;;
5876;SDS011;2964;42.144;24.730;2023-04-15T01:01:32;7.70;;;7.10;;
5876;SDS011;2964;42.144;24.730;2023-04-15T01:04:00;7.60;;;7.00;;
5876;SDS011;2964;42.144;24.730;2023-04-15T01:06:27;7.93;;;7.20;;
5876;SDS011;2964;42.144;24.730;2023-04-15T01:08:54;8.43;;;7.83;;
5876;SDS011;2964;42.144;24.730;2023-04-15T01:11:22;7.57;;;6.97;;
5876;SDS011;2964;42.144;24.730;2023-04-15T01:13:50;8.23;;;7.63;;
5876;SDS011;2964;42.144;24.730;2023-04-15T01:16:18;8.37;;;7.70;;
5876;SDS011;2964;42.144;24.730;2023-04-15T01:18:45;7.70;;;7.20;;
5876;SDS011;2964;42.144;24.730;2023-04-15T01:21:12;8.53;;;7.43;;
5876;SDS011;2964;42.144;24.730;2023-04-15T01:23:39;8.27;;;7.63;;
5876;SDS011;2964;42.144;24.730;2023-04-15T01:26:07;8.17;;;7.37;;
5876;SDS011;2964;42.144;24.730;2023-04-15T01:28:35;7.63;;;7.03;;
5876;SDS011;2964;42.144;24.730;2023-04-15T01:31:05;7.57;;;6.87;;
5876;SDS011;2964;42.144;24.730;2023-04-15T01:33:33;8.00;;;7.23;;
5876;SDS011;2964;42.144;24.730;2023-04-15T01:35:59;9.40;;;6.90;;
5876;SDS011;2964;42.144;24.730;2023-04-15T01:38:26;7.13;;;6.73;;
5876;SDS011;2964;42.144;24.730;2023-04-15T01:40:55;7.97;;;7.40;;
5876;SDS011;2964;42.144;24.730;2023-04-15T01:43:23;7.17;;;6.60;;
5876;SDS011;2964;42.144;24.730;2023-04-15T01:45:50;7.43;;;6.83;;
5876;SDS011;2964;42.144;24.730;2023-04-15T01:48:17;7.67;;;7.03;;
5876;SDS011;2964;42.144;24.730;2023-04-15T01:50:44;7.13;;;6.60;;
5876;SDS011;2964;42.144;24.730;2023-04-15T01:53:11;6.93;;;6.27;;
5876;SDS011;2964;42.144;24.730;2023-04-15T01:55:38;6.50;;;6.00;;
5876;SDS011;2964;42.144;24.730;2023-04-15T01:58:05;6.70;;;6.30;;
5876;SDS011;2964;42.144;24.730;2023-04-15T02:00:33;6.03;;;5.67;;
5876;SDS011;2964;42.144;24.730;2023-04-15T02:02:59;6.63;;;6.13;;
5876;SDS011;2964;42.144;24.730;2023-04-15T02:05:26;6.13;;;5.53;;
5876;SDS011;2964;42.144;24.730;2023-04-15T02:07:53;6.00;;;5.60;;
5876;SDS011;2964;42.144;24.730;2023-04-15T02:10:19;6.73;;;6.13;;
5876;SDS011;2964;42.144;24.730;2023-04-15T02:12:46;6.07;;;5.63;;
5876;SDS011;2964;42.144;24.730;2023-04-15T02:15:13;5.03;;;4.67;;
5876;SDS011;2964;42.144;24.730;2023-04-15T02:17:41;5.30;;;5.03;;
5876;SDS011;2964;42.144;24.730;2023-04-15T02:20:10;5.47;;;5.07;;
5876;SDS011;2964;42.144;24.730;2023-04-15T02:22:37;4.90;;;4.70;;
5876;SDS011;2964;42.144;24.730;2023-04-15T02:25:04;5.60;;;5.20;;
5876;SDS011;2964;42.144;24.730;2023-04-15T02:27:32;5.03;;;4.73;;
5876;SDS011;2964;42.144;24.730;2023-04-15T02:29:58;5.27;;;4.97;;
5876;SDS011;2964;42.144;24.730;2023-04-15T02:32:25;5.30;;;4.90;;
5876;SDS011;2964;42.144;24.730;2023-04-15T02:34:54;5.67;;;5.37;;
5876;SDS011;2964;42.144;24.730;2023-04-15T02:37:21;5.23;;;4.60;;
5876;SDS011;2964;42.144;24.730;2023-04-15T02:39:48;6.00;;;5.60;;
5876;SDS011;2964;42.144;24.730;2023-04-15T02:42:15;5.10;;;4.70;;
5876;SDS011;2964;42.144;24.730;2023-04-15T02:44:42;5.77;;;5.40;;
5876;SDS011;2964;42.144;24.730;2023-04-15T02:47:08;5.07;;;4.77;;
5876;SDS011;2964;42.144;24.730;2023-04-15T02:49:35;5.27;;;4.87;;
5876;SDS011;2964;42.144;24.730;2023-04-15T02:52:04;5.67;;;5.27;;
5876;SDS011;2964;42.144;24.730;2023-04-15T02:54:31;4.60;;;4.40;;
5876;SDS011;2964;42.144;24.730;2023-04-15T02:56:58;4.27;;;4.07;;
5876;SDS011;2964;42.144;24.730;2023-04-15T02:59:25;5.13;;;4.63;;
5876;SDS011;2964;42.144;24.730;2023-04-15T03:01:51;4.83;;;4.57;;
5876;SDS011;2964;42.144;24.730;2023-04-15T03:04:19;5.93;;;4.90;;
5876;SDS011;2964;42.144;24.730;2023-04-15T03:06:46;5.30;;;4.87;;
5876;SDS011;2964;42.144;24.730;2023-04-15T03:09:14;4.80;;;4.50;;
5876;SDS011;2964;42.144;24.730;2023-04-15T03:11:40;4.90;;;4.63;;
5876;SDS011;2964;42.144;24.730;2023-04-15T03:14:07;8.17;;;4.50;;
5876;SDS011;2964;42.144;24.730;2023-04-15T03:16:33;5.07;;;4.57;;
5876;SDS011;2964;42.144;24.730;2023-04-15T03:19:00;4.60;;;4.20;;
5876;SDS011;2964;42.144;24.730;2023-04-15T03:21:27;5.83;;;5.13;;
5876;SDS011;2964;42.144;24.730;2023-04-15T03:23:53;6.23;;;5.63;;
5876;SDS011;2964;42.144;24.730;2023-04-15T03:26:25;4.80;;;4.60;;
5876;SDS011;2964;42.144;24.730;2023-04-15T03:28:53;5.87;;;5.47;;
5876;SDS011;2964;42.144;24.730;2023-04-15T03:31:20;6.47;;;4.80;;
5876;SDS011;2964;42.144;24.730;2023-04-15T03:33:47;5.20;;;4.83;;
5876;SDS011;2964;42.144;24.730;2023-04-15T03:36:14;4.63;;;4.33;;
5876;SDS011;2964;42.144;24.730;2023-04-15T03:38:41;5.03;;;4.63;;
5876;SDS011;2964;42.144;24.730;2023-04-15T03:41:08;5.63;;;5.23;;
5876;SDS011;2964;42.144;24.730;2023-04-15T03:43:36;5.50;;;4.90;;
5876;SDS011;2964;42.144;24.730;2023-04-15T03:46:02;4.57;;;4.37;;
5876;SDS011;2964;42.144;24.730;2023-04-15T03:48:29;5.10;;;4.80;;
5876;SDS011;2964;42.144;24.730;2023-04-15T03:50:56;4.87;;;4.57;;
5876;SDS011;2964;42.144;24.730;2023-04-15T03:53:23;7.13;;;4.47;;
5876;SDS011;2964;42.144;24.730;2023-04-15T03:55:49;5.07;;;4.77;;
5876;SDS011;2964;42.144;24.730;2023-04-15T03:58:16;5.40;;;4.87;;
5876;SDS011;2964;42.144;24.730;2023-04-15T04:00:44;5.27;;;4.80;;
5876;SDS011;2964;42.144;24.730;2023-04-15T04:03:11;4.93;;;4.60;;
5876;SDS011;2964;42.144;24.730;2023-04-15T04:05:37;5.53;;;5.13;;
5876;SDS011;2964;42.144;24.730;2023-04-15T04:08:05;4.37;;;4.07;;
5876;SDS011;2964;42.144;24.730;2023-04-15T04:10:32;5.40;;;4.90;;
5876;SDS011;2964;42.144;24.730;2023-04-15T04:12:59;4.80;;;4.40;;
5876;SDS011;2964;42.144;24.730;2023-04-15T04:15:26;4.90;;;4.50;;
5876;SDS011;2964;42.144;24.730;2023-04-15T04:17:54;4.17;;;3.97;;
5876;SDS011;2964;42.144;24.730;2023-04-15T04:20:21;5.23;;;4.20;;
5876;SDS011;2964;42.144;24.730;2023-04-15T04:22:47;4.83;;;3.90;;
5876;SDS011;2964;42.144;24.730;2023-04-15T04:25:15;3.77;;;3.57;;
5876;SDS011;2964;42.144;24.730;2023-04-15T04:27:41;4.63;;;4.23;;
5876;SDS011;2964;42.144;24.730;2023-04-15T04:30:09;5.10;;;4.70;;
5876;SDS011;2964;42.144;24.730;2023-04-15T04:32:36;4.10;;;3.70;;
5876;SDS011;2964;42.144;24.730;2023-04-15T04:35:05;4.83;;;4.53;;
5876;SDS011;2964;42.144;24.730;2023-04-15T04:37:32;4.70;;;4.40;;
5876;SDS011;2964;42.144;24.730;2023-04-15T04:39:58;5.17;;;4.77;;
5876;SDS011;2964;42.144;24.730;2023-04-15T04:42:25;5.30;;;4.30;;
5876;SDS011;2964;42.144;24.730;2023-04-15T04:44:52;4.73;;;4.27;;
5876;SDS011;2964;42.144;24.730;2023-04-15T04:47:19;4.13;;;3.93;;
5876;SDS011;2964;42.144;24.730;2023-04-15T04:49:46;5.47;;;4.27;;
5876;SDS011;2964;42.144;24.730;2023-04-15T04:52:14;4.07;;;3.87;;
5876;SDS011;2964;42.144;24.730;2023-04-15T04:54:40;4.97;;;4.57;;
5876;SDS011;2964;42.144;24.730;2023-04-15T04:57:07;6.20;;;4.00;;
5876;SDS011;2964;42.144;24.730;2023-04-15T04:59:34;4.93;;;4.03;;
5876;SDS011;2964;42.144;24.730;2023-04-15T05:02:00;4.60;;;4.30;;
5876;SDS011;2964;42.144;24.730;2023-04-15T05:04:27;5.97;;;4.13;;
5876;SDS011;2964;42.144;24.730;2023-04-15T05:06:55;4.60;;;4.33;;
5876;SDS011;2964;42.144;24.730;2023-04-15T05:09:24;6.57;;;4.20;;
5876;SDS011;2964;42.144;24.730;2023-04-15T05:11:51;4.40;;;4.10;;
5876;SDS011;2964;42.144;24.730;2023-04-15T05:14:18;6.43;;;4.37;;
5876;SDS011;2964;42.144;24.730;2023-04-15T05:16:44;5.37;;;4.97;;
5876;SDS011;2964;42.144;24.730;2023-04-15T05:19:11;4.60;;;4.30;;
5876;SDS011;2964;42.144;24.730;2023-04-15T05:21:38;5.23;;;4.37;;
5876;SDS011;2964;42.144;24.730;2023-04-15T05:24:05;4.80;;;4.47;;
5876;SDS011;2964;42.144;24.730;2023-04-15T05:26:33;4.50;;;4.30;;
5876;SDS011;2964;42.144;24.730;2023-04-15T05:28:59;4.70;;;4.40;;
5876;SDS011;2964;42.144;24.730;2023-04-15T05:31:26;5.33;;;4.97;;
5876;SDS011;2964;42.144;24.730;2023-04-15T05:33:53;4.43;;;4.13;;
5876;SDS011;2964;42.144;24.730;2023-04-15T05:36:19;4.30;;;4.00;;
5876;SDS011;2964;42.144;24.730;2023-04-15T05:38:46;4.60;;;4.33;;
5876;SDS011;2964;42.144;24.730;2023-04-15T05:41:13;4.53;;;4.23;;
5876;SDS011;2964;42.144;24.730;2023-04-15T05:43:42;4.03;;;3.73;;
5876;SDS011;2964;42.144;24.730;2023-04-15T05:46:08;4.33;;;4.10;;
5876;SDS011;2964;42.144;24.730;2023-04-15T05:48:35;4.00;;;3.73;;
5876;SDS011;2964;42.144;24.730;2023-04-15T05:51:01;4.10;;;3.30;;
5876;SDS011;2964;42.144;24.730;2023-04-15T05:53:28;5.30;;;3.70;;
5876;SDS011;2964;42.144;24.730;2023-04-15T05:55:55;10.63;;;4.00;;
5876;SDS011;2964;42.144;24.730;2023-04-15T05:58:22;3.67;;;3.43;;
5876;SDS011;2964;42.144;24.730;2023-04-15T06:00:50;4.70;;;4.30;;
5876;SDS011;2964;42.144;24.730;2023-04-15T06:03:17;4.17;;;3.70;;
5876;SDS011;2964;42.144;24.730;2023-04-15T06:05:43;4.47;;;4.17;;
5876;SDS011;2964;42.144;24.730;2023-04-15T06:08:10;5.20;;;4.67;;
5876;SDS011;2964;42.144;24.730;2023-04-15T06:10:37;4.33;;;4.03;;
5876;SDS011;2964;42.144;24.730;2023-04-15T06:13:04;4.13;;;3.83;;
5876;SDS011;2964;42.144;24.730;2023-04-15T06:15:31;4.30;;;3.90;;
5876;SDS011;2964;42.144;24.730;2023-04-15T06:17:59;4.27;;;3.97;;
5876;SDS011;2964;42.144;24.730;2023-04-15T06:20:25;4.78;;;4.47;;
5876;SDS011;2964;42.144;24.730;2023-04-15T06:22:52;5.35;;;4.85;;
5876;SDS011;2964;42.144;24.730;2023-04-15T06:25:19;4.70;;;4.30;;
5876;SDS011;2964;42.144;24.730;2023-04-15T06:27:46;4.15;;;3.90;;
5876;SDS011;2964;42.144;24.730;2023-04-15T06:30:12;4.32;;;4.03;;
5876;SDS011;2964;42.144;24.730;2023-04-15T06:32:39;4.18;;;3.97;;
5876;SDS011;2964;42.144;24.730;2023-04-15T06:35:08;5.25;;;4.43;;
5876;SDS011;2964;42.144;24.730;2023-04-15T06:37:34;7.72;;;4.95;;
5876;SDS011;2964;42.144;24.730;2023-04-15T06:40:01;5.45;;;5.05;;
5876;SDS011;2964;42.144;24.730;2023-04-15T06:42:29;5.25;;;4.25;;
5876;SDS011;2964;42.144;24.730;2023-04-15T06:44:55;5.40;;;4.95;;
5876;SDS011;2964;42.144;24.730;2023-04-15T06:47:22;5.30;;;4.80;;
5876;SDS011;2964;42.144;24.730;2023-04-15T06:49:49;8.65;;;4.85;;
5876;SDS011;2964;42.144;24.730;2023-04-15T06:52:17;5.07;;;4.55;;
5876;SDS011;2964;42.144;24.730;2023-04-15T06:54:44;5.03;;;4.43;;
5876;SDS011;2964;42.144;24.730;2023-04-15T06:57:10;6.53;;;4.38;;
5876;SDS011;2964;42.144;24.730;2023-04-15T06:59:37;5.72;;;5.15;;
5876;SDS011;2964;42.144;24.730;2023-04-15T07:02:04;5.30;;;4.90;;
5876;SDS011;2964;42.144;24.730;2023-04-15T07:04:30;6.15;;;4.97;;
5876;SDS011;2964;42.144;24.730;2023-04-15T07:06:57;7.30;;;4.60;;
5876;SDS011;2964;42.144;24.730;2023-04-15T07:09:26;6.38;;;5.28;;
5876;SDS011;2964;42.144;24.730;2023-04-15T07:11:52;5.97;;;5.57;;
5876;SDS011;2964;42.144;24.730;2023-04-15T07:14:19;6.88;;;6.20;;
5876;SDS011;2964;42.144;24.730;2023-04-15T07:16:46;8.13;;;6.50;;
5876;SDS011;2964;42.144;24.730;2023-04-15T07:19:12;7.97;;;7.13;;
5876;SDS011;2964;42.144;24.730;2023-04-15T07:21:39;7.53;;;7.03;;
5876;SDS011;2964;42.144;24.730;2023-04-15T07:24:06;6.95;;;6.40;;
5876;SDS011;2964;42.144;24.730;2023-04-15T07:26:35;7.22;;;6.82;;
5876;SDS011;2964;42.144;24.730;2023-04-15T07:29:02;8.63;;;7.53;;
5876;SDS011;2964;42.144;24.730;2023-04-15T07:31:29;7.88;;;7.18;;
5876;SDS011;2964;42.144;24.730;2023-04-15T07:33:55;7.63;;;6.88;;
5876;SDS011;2964;42.144;24.730;2023-04-15T07:36:22;6.82;;;6.22;;
5876;SDS011;2964;42.144;24.730;2023-04-15T07:38:49;6.85;;;6.20;;
5876;SDS011;2964;42.144;24.730;2023-04-15T07:41:16;8.13;;;7.07;;
5876;SDS011;2964;42.144;24.730;2023-04-15T07:43:44;7.38;;;6.78;;
5876;SDS011;2964;42.144;24.730;2023-04-15T07:46:11;6.70;;;6.30;;
5876;SDS011;2964;42.144;24.730;2023-04-15T07:48:38;6.95;;;6.35;;
5876;SDS011;2964;42.144;24.730;2023-04-15T07:51:05;6.85;;;6.35;;
5876;SDS011;2964;42.144;24.730;2023-04-15T07:53:32;6.95;;;6.45;;
5876;SDS011;2964;42.144;24.730;2023-04-15T07:55:59;6.30;;;5.90;;
5876;SDS011;2964;42.144;24.730;2023-04-15T07:58:26;7.70;;;7.15;;
5876;SDS011;2964;42.144;24.730;2023-04-15T08:00:54;7.63;;;6.93;;
5876;SDS011;2964;42.144;24.730;2023-04-15T08:03:21;7.38;;;6.57;;
5876;SDS011;2964;42.144;24.730;2023-04-15T08:05:47;6.00;;;5.50;;
5876;SDS011;2964;42.144;24.730;2023-04-15T08:08:14;6.55;;;6.05;;
5876;SDS011;2964;42.144;24.730;2023-04-15T08:10:41;6.65;;;6.15;;
5876;SDS011;2964;42.144;24.730;2023-04-15T08:13:07;5.03;;;4.70;;
5876;SDS011;2964;42.144;24.730;2023-04-15T08:15:34;6.97;;;5.75;;
5876;SDS011;2964;42.144;24.730;2023-04-15T08:18:02;5.65;;;5.15;;
5876;SDS011;2964;42.144;24.730;2023-04-15T08:20:29;7.47;;;6.75;;
5876;SDS011;2964;42.144;24.730;2023-04-15T08:22:56;7.75;;;6.90;;
5876;SDS011;2964;42.144;24.730;2023-04-15T08:25:22;5.85;;;5.43;;
5876;SDS011;2964;42.144;24.730;2023-04-15T08:27:49;7.20;;;6.80;;
5876;SDS011;2964;42.144;24.730;2023-04-15T08:30:16;6.75;;;6.15;;
5876;SDS011;2964;42.144;24.730;2023-04-15T08:32:44;6.85;;;5.95;;
5876;SDS011;2964;42.144;24.730;2023-04-15T08:35:13;5.75;;;5.25;;
5876;SDS011;2964;42.144;24.730;2023-04-15T08:37:39;6.55;;;6.05;;
5876;SDS011;2964;42.144;24.730;2023-04-15T08:40:07;6.07;;;5.78;;
5876;SDS011;2964;42.144;24.730;2023-04-15T08:42:36;5.03;;;4.82;;
5876;SDS011;2964;42.144;24.730;2023-04-15T08:45:07;5.70;;;5.25;;
5876;SDS011;2964;42.144;24.730;2023-04-15T08:47:35;6.88;;;6.20;;
5876;SDS011;2964;42.144;24.730;2023-04-15T08:50:04;5.68;;;5.38;;
5876;SDS011;2964;42.144;24.730;2023-04-15T08:52:36;6.72;;;5.65;;
5876;SDS011;2964;42.144;24.730;2023-04-15T08:55:02;6.25;;;5.70;;
5876;SDS011;2964;42.144;24.730;2023-04-15T08:57:31;6.10;;;5.70;;
5876;SDS011;2964;42.144;24.730;2023-04-15T08:59:58;9.15;;;8.32;;
5876;SDS011;2964;42.144;24.730;2023-04-15T09:02:31;5.85;;;5.45;;
5876;SDS011;2964;42.144;24.730;2023-04-15T09:04:57;5.65;;;5.35;;
5876;SDS011;2964;42.144;24.730;2023-04-15T09:07:24;8.02;;;7.45;;
5876;SDS011;2964;42.144;24.730;2023-04-15T09:09:53;6.00;;;5.60;;
5876;SDS011;2964;42.144;24.730;2023-04-15T09:12:19;5.40;;;5.10;;
5876;SDS011;2964;42.144;24.730;2023-04-15T09:14:46;6.75;;;6.22;;
5876;SDS011;2964;42.144;24.730;2023-04-15T09:17:14;6.38;;;5.97;;
5876;SDS011;2964;42.144;24.730;2023-04-15T09:19:45;6.32;;;5.82;;
5876;SDS011;2964;42.144;24.730;2023-04-15T09:22:11;6.63;;;6.13;;
5876;SDS011;2964;42.144;24.730;2023-04-15T09:24:38;8.23;;;5.97;;
5876;SDS011;2964;42.144;24.730;2023-04-15T09:27:08;6.85;;;5.38;;
5876;SDS011;2964;42.144;24.730;2023-04-15T09:29:35;6.20;;;5.80;;
5876;SDS011;2964;42.144;24.730;2023-04-15T09:32:08;5.07;;;4.68;;
5876;SDS011;2964;42.144;24.730;2023-04-15T09:34:36;5.15;;;4.65;;
5876;SDS011;2964;42.144;24.730;2023-04-15T09:37:02;6.85;;;5.72;;
5876;SDS011;2964;42.144;24.730;2023-04-15T09:39:43;7.63;;;6.50;;
5876;SDS011;2964;42.144;24.730;2023-04-15T09:42:13;5.90;;;5.25;;
5876;SDS011;2964;42.144;24.730;2023-04-15T09:44:41;8.20;;;7.07;;
5876;SDS011;2964;42.144;24.730;2023-04-15T09:47:08;5.47;;;5.07;;
5876;SDS011;2964;42.144;24.730;2023-04-15T09:49:35;5.85;;;5.45;;
5876;SDS011;2964;42.144;24.730;2023-04-15T09:52:02;5.88;;;5.50;;
5876;SDS011;2964;42.144;24.730;2023-04-15T09:54:33;5.47;;;5.18;;
5876;SDS011;2964;42.144;24.730;2023-04-15T09:57:04;6.15;;;4.97;;
5876;SDS011;2964;42.144;24.730;2023-04-15T09:59:33;9.30;;;6.35;;
5876;SDS011;2964;42.144;24.730;2023-04-15T10:02:00;6.15;;;5.55;;
5876;SDS011;2964;42.144;24.730;2023-04-15T10:04:30;6.57;;;5.97;;
5876;SDS011;2964;42.144;24.730;2023-04-15T10:07:00;6.00;;;5.32;;
5876;SDS011;2964;42.144;24.730;2023-04-15T10:09:30;5.78;;;5.38;;
5876;SDS011;2964;42.144;24.730;2023-04-15T10:11:57;9.85;;;5.82;;
5876;SDS011;2964;42.144;24.730;2023-04-15T10:14:25;6.72;;;5.38;;
5876;SDS011;2964;42.144;24.730;2023-04-15T10:16:56;6.00;;;5.53;;
5876;SDS011;2964;42.144;24.730;2023-04-15T10:19:26;9.63;;;4.73;;
5876;SDS011;2964;42.144;24.730;2023-04-15T10:21:56;5.47;;;5.10;;
5876;SDS011;2964;42.144;24.730;2023-04-15T10:24:24;6.60;;;6.10;;
5876;SDS011;2964;42.144;24.730;2023-04-15T10:26:51;6.40;;;5.83;;
5876;SDS011;2964;42.144;24.730;2023-04-15T10:29:17;5.13;;;4.73;;
5876;SDS011;2964;42.144;24.730;2023-04-15T10:31:45;8.47;;;4.87;;
5876;SDS011;2964;42.144;24.730;2023-04-15T10:34:15;4.50;;;4.10;;
5876;SDS011;2964;42.144;24.730;2023-04-15T10:36:43;4.60;;;4.03;;
5876;SDS011;2964;42.144;24.730;2023-04-15T10:42:06;7.03;;;4.70;;
5876;SDS011;2964;42.144;24.730;2023-04-15T10:44:34;6.67;;;5.87;;
5876;SDS011;2964;42.144;24.730;2023-04-15T10:47:03;4.90;;;4.30;;
5876;SDS011;2964;42.144;24.730;2023-04-15T10:49:41;5.07;;;4.53;;
5876;SDS011;2964;42.144;24.730;2023-04-15T10:52:10;5.47;;;5.17;;
5876;SDS011;2964;42.144;24.730;2023-04-15T10:54:37;7.33;;;6.20;;
5876;SDS011;2964;42.144;24.730;2023-04-15T10:57:07;7.87;;;7.00;;
5876;SDS011;2964;42.144;24.730;2023-04-15T11:02:37;8.63;;;8.03;;
5876;SDS011;2964;42.144;24.730;2023-04-15T11:05:10;7.30;;;6.57;;
5876;SDS011;2964;42.144;24.730;2023-04-15T11:07:38;8.53;;;6.47;;
5876;SDS011;2964;42.144;24.730;2023-04-15T11:13:20;7.80;;;7.10;;
5876;SDS011;2964;42.144;24.730;2023-04-15T11:15:49;7.47;;;6.90;;
5876;SDS011;2964;42.144;24.730;2023-04-15T11:18:17;6.87;;;6.27;;
5876;SDS011;2964;42.144;24.730;2023-04-15T11:20:47;7.30;;;6.70;;
5876;SDS011;2964;42.144;24.730;2023-04-15T11:23:16;6.80;;;6.30;;
5876;SDS011;2964;42.144;24.730;2023-04-15T11:25:44;8.60;;;7.80;;
5876;SDS011;2964;42.144;24.730;2023-04-15T11:28:12;9.73;;;7.50;;
5876;SDS011;2964;42.144;24.730;2023-04-15T11:30:39;8.00;;;6.83;;
5876;SDS011;2964;42.144;24.730;2023-04-15T11:33:08;7.97;;;7.20;;
5876;SDS011;2964;42.144;24.730;2023-04-15T11:35:38;7.43;;;6.80;;
5876;SDS011;2964;42.144;24.730;2023-04-15T11:38:08;7.43;;;6.33;;
5876;SDS011;2964;42.144;24.730;2023-04-15T11:40:37;7.07;;;6.67;;
5876;SDS011;2964;42.144;24.730;2023-04-15T11:43:04;6.77;;;6.27;;
5876;SDS011;2964;42.144;24.730;2023-04-15T11:45:32;6.70;;;6.20;;
5876;SDS011;2964;42.144;24.730;2023-04-15T11:48:08;6.93;;;6.53;;
5876;SDS011;2964;42.144;24.730;2023-04-15T11:50:37;7.33;;;6.63;;
5876;SDS011;2964;42.144;24.730;2023-04-15T11:53:05;7.23;;;6.50;;
5876;SDS011;2964;42.144;24.730;2023-04-15T11:55:41;6.13;;;5.73;;
5876;SDS011;2964;42.144;24.730;2023-04-15T11:58:11;6.67;;;6.20;;
5876;SDS011;2964;42.144;24.730;2023-04-15T12:00:40;7.30;;;6.70;;
5876;SDS011;2964;42.144;24.730;2023-04-15T12:03:21;7.10;;;6.57;;
5876;SDS011;2964;42.144;24.730;2023-04-15T12:06:02;7.83;;;7.00;;
5876;SDS011;2964;42.144;24.730;2023-04-15T12:08:51;7.57;;;7.10;;
5876;SDS011;2964;42.144;24.730;2023-04-15T12:11:27;7.33;;;6.87;;
5876;SDS011;2964;42.144;24.730;2023-04-15T12:13:55;6.50;;;5.77;;
5876;SDS011;2964;42.144;24.730;2023-04-15T12:16:23;5.30;;;4.80;;
5876;SDS011;2964;42.144;24.730;2023-04-15T12:18:51;5.70;;;5.30;;
5876;SDS011;2964;42.144;24.730;2023-04-15T12:21:20;5.53;;;4.93;;
5876;SDS011;2964;42.144;24.730;2023-04-15T12:23:48;5.07;;;4.73;;
5876;SDS011;2964;42.144;24.730;2023-04-15T12:26:16;5.50;;;5.00;;
5876;SDS011;2964;42.144;24.730;2023-04-15T12:28:44;5.93;;;5.40;;
5876;SDS011;2964;42.144;24.730;2023-04-15T12:31:11;6.57;;;5.40;;
5876;SDS011;2964;42.144;24.730;2023-04-15T12:33:38;4.93;;;4.50;;
5876;SDS011;2964;42.144;24.730;2023-04-15T12:36:05;4.30;;;3.90;;
5876;SDS011;2964;42.144;24.730;2023-04-15T12:38:32;6.00;;;4.67;;
5876;SDS011;2964;42.144;24.730;2023-04-15T12:40:59;5.27;;;4.73;;
5876;SDS011;2964;42.144;24.730;2023-04-15T12:43:27;5.20;;;4.80;;
5876;SDS011;2964;42.144;24.730;2023-04-15T12:45:53;5.07;;;4.67;;
5876;SDS011;2964;42.144;24.730;2023-04-15T12:48:20;4.87;;;4.57;;
5876;SDS011;2964;42.144;24.730;2023-04-15T12:50:47;5.07;;;4.77;;
5876;SDS011;2964;42.144;24.730;2023-04-15T12:53:14;4.23;;;3.97;;
5876;SDS011;2964;42.144;24.730;2023-04-15T12:55:40;5.30;;;4.47;;
5876;SDS011;2964;42.144;24.730;2023-04-15T12:58:07;4.20;;;3.90;;
5876;SDS011;2964;42.144;24.730;2023-04-15T13:00:37;4.50;;;4.10;;
5876;SDS011;2964;42.144;24.730;2023-04-15T13:03:04;4.77;;;4.33;;
5876;SDS011;2964;42.144;24.730;2023-04-15T13:05:30;4.90;;;4.00;;
5876;SDS011;2964;42.144;24.730;2023-04-15T13:07:57;4.80;;;4.40;;
5876;SDS011;2964;42.144;24.730;2023-04-15T13:10:24;5.27;;;4.50;;
5876;SDS011;2964;42.144;24.730;2023-04-15T13:12:52;5.97;;;5.17;;
5876;SDS011;2964;42.144;24.730;2023-04-15T13:15:20;4.23;;;3.83;;
5876;SDS011;2964;42.144;24.730;2023-04-15T13:17:48;4.93;;;4.47;;
5876;SDS011;2964;42.144;24.730;2023-04-15T13:20:15;4.40;;;4.03;;
5876;SDS011;2964;42.144;24.730;2023-04-15T13:22:42;4.13;;;3.67;;
5876;SDS011;2964;42.144;24.730;2023-04-15T13:25:09;4.60;;;4.23;;
5876;SDS011;2964;42.144;24.730;2023-04-15T13:27:36;5.57;;;5.10;;
5876;SDS011;2964;42.144;24.730;2023-04-15T13:30:02;4.33;;;4.13;;
5876;SDS011;2964;42.144;24.730;2023-04-15T13:32:30;4.73;;;4.43;;
5876;SDS011;2964;42.144;24.730;2023-04-15T13:34:58;4.60;;;4.20;;
5876;SDS011;2964;42.144;24.730;2023-04-15T13:37:25;4.23;;;3.83;;
5876;SDS011;2964;42.144;24.730;2023-04-15T13:39:51;4.40;;;4.10;;
5876;SDS011;2964;42.144;24.730;2023-04-15T13:42:18;6.40;;;4.67;;
5876;SDS011;2964;42.144;24.730;2023-04-15T13:44:45;4.80;;;4.50;;
5876;SDS011;2964;42.144;24.730;2023-04-15T13:47:12;7.70;;;4.57;;
5876;SDS011;2964;42.144;24.730;2023-04-15T13:49:40;8.07;;;4.07;;
5876;SDS011;2964;42.144;24.730;2023-04-15T13:52:08;6.73;;;4.30;;
5876;SDS011;2964;42.144;24.730;2023-04-15T13:54:35;4.10;;;3.83;;
5876;SDS011;2964;42.144;24.730;2023-04-15T13:57:01;4.13;;;3.93;;
5876;SDS011;2964;42.144;24.730;2023-04-15T13:59:28;4.10;;;3.80;;
5876;SDS011;2964;42.144;24.730;2023-04-15T14:01:54;5.23;;;4.60;;
5876;SDS011;2964;42.144;24.730;2023-04-15T14:04:21;6.20;;;4.20;;
5876;SDS011;2964;42.144;24.730;2023-04-15T14:06:48;6.40;;;5.00;;
5876;SDS011;2964;42.144;24.730;2023-04-15T14:09:16;4.77;;;4.30;;
5876;SDS011;2964;42.144;24.730;2023-04-15T14:11:43;4.37;;;4.10;;
5876;SDS011;2964;42.144;24.730;2023-04-15T14:14:09;5.27;;;4.17;;
5876;SDS011;2964;42.144;24.730;2023-04-15T14:16:36;4.23;;;3.93;;
5876;SDS011;2964;42.144;24.730;2023-04-15T14:19:03;5.13;;;4.70;;
5876;SDS011;2964;42.144;24.730;2023-04-15T14:21:29;4.60;;;4.30;;
5876;SDS011;2964;42.144;24.730;2023-04-15T14:23:56;5.13;;;4.83;;
5876;SDS011;2964;42.144;24.730;2023-04-15T14:26:24;5.03;;;4.57;;
5876;SDS011;2964;42.144;24.730;2023-04-15T14:28:51;4.17;;;3.97;;
5876;SDS011;2964;42.144;24.730;2023-04-15T14:31:18;5.73;;;5.17;;
5876;SDS011;2964;42.144;24.730;2023-04-15T14:33:45;6.37;;;4.63;;
5876;SDS011;2964;42.144;24.730;2023-04-15T14:36:11;5.40;;;4.73;;
5876;SDS011;2964;42.144;24.730;2023-04-15T14:38:38;4.17;;;3.87;;
5876;SDS011;2964;42.144;24.730;2023-04-15T14:41:05;5.50;;;5.10;;
5876;SDS011;2964;42.144;24.730;2023-04-15T14:43:33;5.00;;;3.90;;
5876;SDS011;2964;42.144;24.730;2023-04-15T14:46:00;4.97;;;4.67;;
5876;SDS011;2964;42.144;24.730;2023-04-15T14:48:27;5.27;;;4.90;;
5876;SDS011;2964;42.144;24.730;2023-04-15T14:50:53;6.73;;;4.70;;
5876;SDS011;2964;42.144;24.730;2023-04-15T14:53:20;5.30;;;4.57;;
5876;SDS011;2964;42.144;24.730;2023-04-15T14:55:47;5.77;;;4.47;;
5876;SDS011;2964;42.144;24.730;2023-04-15T14:58:13;8.03;;;4.70;;
5876;SDS011;2964;42.144;24.730;2023-04-15T15:00:42;4.23;;;3.87;;
5876;SDS011;2964;42.144;24.730;2023-04-15T15:03:09;5.50;;;4.57;;
5876;SDS011;2964;42.144;24.730;2023-04-15T15:05:37;4.73;;;3.60;;
5876;SDS011;2964;42.144;24.730;2023-04-15T15:08:05;4.77;;;4.40;;
5876;SDS011;2964;42.144;24.730;2023-04-15T15:10:33;5.60;;;4.27;;